Time;durP1;ratioP1;P1;durP2;ratioP2;P2;SDS_P1;SDS_P2;PMS_P1;PMS_P2;Temp;Humidity;BMP_temperature;BMP_pressure;BME280_temperature;BME280_humidity;BME280_pressure;Samples;Min_cycle;Max_cycle;Signal;HPM_P1;HPM_P2
2022/05/26 00:01:42;;;;;;;41.70;17.20;;;;;;;;;;5051369;28;20487;-64
2022/05/26 00:04:09;;;;;;;43.27;19.80;;;;;;;;;;5052136;28;20041;-64
2022/05/26 00:06:35;;;;;;;43.83;20.40;;;;;;;;;;5052806;28;20103;-64
2022/05/26 00:09:01;;;;;;;37.27;18.93;;;;;;;;;;5052898;28;20045;-64
2022/05/26 00:11:29;;;;;;;49.87;21.37;;;;;;;;;;5054054;28;20041;-64
2022/05/26 00:13:56;;;;;;;41.30;20.13;;;;;;;;;;5053004;28;20041;-64
2022/05/26 00:16:22;;;;;;;42.10;20.70;;;;;;;;;;5052447;28;20041;-64
2022/05/26 00:18:48;;;;;;;53.20;23.53;;;;;;;;;;5051580;28;20454;-64
2022/05/26 00:21:15;;;;;;;64.83;25.47;;;;;;;;;;5052321;28;20450;-64
2022/05/26 00:23:41;;;;;;;46.37;22.23;;;;;;;;;;5051431;28;20102;-64
2022/05/26 00:26:07;;;;;;;62.57;25.63;;;;;;;;;;5052171;28;20052;-64
2022/05/26 00:28:33;;;;;;;47.97;23.27;;;;;;;;;;5052544;28;20127;-63
2022/05/26 00:31:00;;;;;;;38.77;21.53;;;;;;;;;;5052374;28;20041;-63
2022/05/26 00:33:26;;;;;;;45.50;20.50;;;;;;;;;;5059641;28;20040;-63
2022/05/26 00:35:52;;;;;;;40.60;21.47;;;;;;;;;;5072253;28;20045;-63
2022/05/26 00:38:18;;;;;;;50.90;22.70;;;;;;;;;;5071185;28;20060;-64
2022/05/26 00:40:45;;;;;;;47.90;22.77;;;;;;;;;;5072420;28;20418;-63
2022/05/26 00:43:12;;;;;;;44.33;22.30;;;;;;;;;;5072477;28;20166;-64
2022/05/26 00:45:41;;;;;;;43.70;24.53;;;;;;;;;;5071817;28;20045;-63
2022/05/26 00:48:09;;;;;;;39.23;22.13;;;;;;;;;;5071327;28;20463;-63
2022/05/26 00:50:40;;;;;;;43.93;22.33;;;;;;;;;;5072078;28;20047;-63
2022/05/26 00:53:22;;;;;;;47.53;23.30;;;;;;;;;;5072237;28;20048;-63
2022/05/26 00:55:51;;;;;;;43.97;20.73;;;;;;;;;;5072416;28;20045;-63
2022/05/26 00:58:23;;;;;;;43.47;20.70;;;;;;;;;;5071797;28;20044;-64
2022/05/26 01:00:49;;;;;;;47.27;21.73;;;;;;;;;;5070108;28;20414;-63
2022/05/26 01:03:26;;;;;;;54.73;24.47;;;;;;;;;;5052061;28;20045;-63
2022/05/26 01:06:03;;;;;;;54.57;23.43;;;;;;;;;;5051760;28;20403;-63
2022/05/26 01:08:34;;;;;;;46.77;23.57;;;;;;;;;;5051591;28;20187;-64
2022/05/26 01:11:00;;;;;;;44.93;21.53;;;;;;;;;;5051786;28;20049;-63
2022/05/26 01:13:26;;;;;;;49.97;24.77;;;;;;;;;;5051387;28;20052;-66
2022/05/26 01:15:57;;;;;;;53.63;23.83;;;;;;;;;;5052044;28;20040;-64
2022/05/26 01:18:34;;;;;;;69.60;28.80;;;;;;;;;;5051401;28;20041;-64
2022/05/26 01:21:10;;;;;;;56.40;24.17;;;;;;;;;;5051405;28;20419;-64
2022/05/26 01:23:48;;;;;;;47.67;24.93;;;;;;;;;;5050636;28;20083;-64
2022/05/26 01:26:29;;;;;;;48.60;25.33;;;;;;;;;;5051702;28;20088;-63
2022/05/26 01:29:14;;;;;;;52.33;23.07;;;;;;;;;;5051427;28;20147;-63
2022/05/26 01:32:04;;;;;;;48.87;24.40;;;;;;;;;;5055506;28;20099;-64
2022/05/26 01:34:39;;;;;;;44.07;22.10;;;;;;;;;;5071402;28;20467;-63
2022/05/26 01:37:17;;;;;;;51.10;24.67;;;;;;;;;;5070041;28;20043;-65
2022/05/26 01:39:46;;;;;;;55.20;23.37;;;;;;;;;;5065889;28;20076;-64
2022/05/26 01:42:21;;;;;;;53.87;23.87;;;;;;;;;;5050764;28;20122;-63
2022/05/26 01:44:53;;;;;;;78.77;27.13;;;;;;;;;;5051341;28;20132;-63
2022/05/26 01:47:35;;;;;;;64.70;27.60;;;;;;;;;;5050849;28;20053;-64
2022/05/26 01:50:15;;;;;;;49.00;23.90;;;;;;;;;;5051982;28;20503;-63
2022/05/26 01:52:46;;;;;;;68.60;25.83;;;;;;;;;;5050923;28;20079;-63
2022/05/26 01:55:17;;;;;;;62.37;26.43;;;;;;;;;;5050918;28;20131;-64
2022/05/26 01:57:55;;;;;;;59.93;24.67;;;;;;;;;;5049304;28;20140;-64
2022/05/26 02:00:21;;;;;;;67.43;26.10;;;;;;;;;;5050724;28;20049;-64
2022/05/26 02:02:56;;;;;;;80.17;28.17;;;;;;;;;;5051142;28;20088;-63
2022/05/26 02:05:24;;;;;;;52.80;23.13;;;;;;;;;;5050498;28;20048;-64
2022/05/26 02:07:53;;;;;;;57.37;22.97;;;;;;;;;;5050724;28;20087;-64
2022/05/26 02:10:25;;;;;;;54.33;23.37;;;;;;;;;;5050684;28;20503;-64
2022/05/26 02:12:54;;;;;;;54.40;22.03;;;;;;;;;;5053624;28;20048;-63
2022/05/26 02:15:26;;;;;;;53.33;22.03;;;;;;;;;;5051239;28;20503;-63
2022/05/26 02:17:56;;;;;;;59.30;24.47;;;;;;;;;;5051084;28;20044;-64
2022/05/26 02:20:26;;;;;;;57.77;22.63;;;;;;;;;;5049375;28;20080;-64
2022/05/26 02:22:54;;;;;;;66.80;22.70;;;;;;;;;;5050637;28;20049;-64
2022/05/26 02:25:21;;;;;;;58.23;22.30;;;;;;;;;;5050282;28;20083;-64
2022/05/26 02:27:48;;;;;;;60.93;21.97;;;;;;;;;;5049400;28;20048;-64
2022/05/26 02:30:14;;;;;;;63.03;23.57;;;;;;;;;;5050656;28;20072;-64
2022/05/26 02:32:42;;;;;;;47.60;20.77;;;;;;;;;;5050575;28;20048;-64
2022/05/26 02:35:11;;;;;;;62.70;21.23;;;;;;;;;;5050581;28;20041;-64
2022/05/26 02:37:38;;;;;;;53.90;21.57;;;;;;;;;;5050187;28;20056;-64
2022/05/26 02:40:05;;;;;;;52.63;18.13;;;;;;;;;;5048869;28;20556;-64
2022/05/26 02:42:31;;;;;;;51.17;18.93;;;;;;;;;;5050694;28;20053;-64
2022/05/26 02:44:57;;;;;;;50.03;19.00;;;;;;;;;;5050099;28;20155;-64
2022/05/26 02:47:34;;;;;;;49.10;19.50;;;;;;;;;;5050087;28;20148;-64
2022/05/26 02:50:04;;;;;;;60.10;20.70;;;;;;;;;;5049668;28;20048;-64
2022/05/26 02:52:36;;;;;;;61.37;21.40;;;;;;;;;;5050407;28;20045;-64
2022/05/26 02:55:02;;;;;;;65.73;21.83;;;;;;;;;;5050259;28;20126;-64
2022/05/26 02:57:28;;;;;;;59.80;19.33;;;;;;;;;;5050347;28;20059;-64
2022/05/26 03:00:01;;;;;;;64.77;21.40;;;;;;;;;;5049797;28;20037;-64
2022/05/26 03:02:27;;;;;;;66.30;20.02;;;;;;;;;;5049912;28;20439;-64
2022/05/26 03:04:57;;;;;;;63.67;21.70;;;;;;;;;;5055637;28;20178;-64
2022/05/26 03:07:25;;;;;;;55.57;19.03;;;;;;;;;;5061979;28;20037;-64
2022/05/26 03:09:52;;;;;;;61.30;19.20;;;;;;;;;;5069058;28;20100;-64
2022/05/26 03:12:26;;;;;;;55.50;18.40;;;;;;;;;;5070097;28;20045;-64
2022/05/26 03:14:52;;;;;;;44.33;16.73;;;;;;;;;;5070149;28;20064;-64
2022/05/26 03:17:18;;;;;;;60.33;18.43;;;;;;;;;;5069797;28;20040;-64
2022/05/26 03:19:44;;;;;;;54.63;19.40;;;;;;;;;;5070150;28;20063;-64
2022/05/26 03:22:11;;;;;;;66.80;19.03;;;;;;;;;;5069639;28;20041;-64
2022/05/26 03:24:37;;;;;;;57.93;17.97;;;;;;;;;;5064835;28;20048;-64
2022/05/26 03:27:03;;;;;;;61.20;18.07;;;;;;;;;;5049552;28;20045;-64
2022/05/26 03:29:29;;;;;;;53.17;15.30;;;;;;;;;;5049470;28;20139;-64
2022/05/26 03:31:55;;;;;;;67.80;19.20;;;;;;;;;;5049893;28;20128;-64
2022/05/26 03:42:38;;;;;;;52.53;14.57;;;;;;;;;;5069216;28;20506;-63
2022/05/26 03:45:05;;;;;;;47.90;13.60;;;;;;;;;;5069046;28;20040;-64
2022/05/26 03:47:31;;;;;;;40.63;11.87;;;;;;;;;;5069160;28;20044;-64
2022/05/26 03:49:57;;;;;;;53.47;14.63;;;;;;;;;;5069032;28;20068;-64
2022/05/26 03:52:23;;;;;;;47.47;11.40;;;;;;;;;;5060864;28;20410;-64
2022/05/26 03:54:49;;;;;;;48.73;11.30;;;;;;;;;;5059113;28;20080;-64
2022/05/26 03:57:22;;;;;;;47.47;10.87;;;;;;;;;;5056142;28;20419;-64
2022/05/26 03:59:48;;;;;;;40.13;8.10;;;;;;;;;;5059368;28;20044;-64
2022/05/26 04:02:14;;;;;;;30.43;7.23;;;;;;;;;;5056085;28;20041;-64
2022/05/26 04:04:40;;;;;;;29.60;7.40;;;;;;;;;;5056454;28;20056;-64
2022/05/26 04:07:06;;;;;;;32.17;7.83;;;;;;;;;;5056720;28;20579;-64
2022/05/26 04:09:32;;;;;;;29.40;5.73;;;;;;;;;;5056209;28;20088;-64
2022/05/26 04:11:58;;;;;;;29.47;6.40;;;;;;;;;;5057850;28;20045;-64
2022/05/26 04:14:24;;;;;;;35.50;7.27;;;;;;;;;;5056042;28;20132;-64
2022/05/26 04:16:50;;;;;;;28.30;6.23;;;;;;;;;;5060067;28;20040;-64
2022/05/26 04:19:16;;;;;;;25.20;5.10;;;;;;;;;;5064601;28;20045;-64
2022/05/26 04:22:15;;;;;;;22.73;4.63;;;;;;;;;;5069047;28;20041;-64
2022/05/26 04:24:28;;;;;;;25.27;4.53;;;;;;;;;;5071580;28;20094;-64
2022/05/26 04:26:54;;;;;;;17.50;3.77;;;;;;;;;;5071999;28;20047;-64
2022/05/26 04:29:23;;;;;;;15.37;4.07;;;;;;;;;;5071686;28;20049;-64
2022/05/26 04:31:49;;;;;;;20.27;3.63;;;;;;;;;;5071700;28;20047;-64
2022/05/26 04:34:15;;;;;;;19.17;3.73;;;;;;;;;;5072041;28;20056;-64
2022/05/26 04:36:41;;;;;;;17.50;3.97;;;;;;;;;;5071785;28;20438;-64
2022/05/26 04:39:07;;;;;;;14.73;4.63;;;;;;;;;;5069864;28;20044;-64
2022/05/26 04:41:34;;;;;;;16.57;3.77;;;;;;;;;;5072194;28;20512;-64
2022/05/26 04:44:00;;;;;;;18.13;3.30;;;;;;;;;;5071632;28;20040;-64
2022/05/26 04:46:26;;;;;;;21.10;3.67;;;;;;;;;;5070493;28;20087;-63
2022/05/26 04:48:52;;;;;;;20.27;3.87;;;;;;;;;;5071668;28;20044;-63
2022/05/26 04:51:18;;;;;;;16.50;3.60;;;;;;;;;;5071555;28;20049;-63
2022/05/26 04:53:44;;;;;;;17.90;3.90;;;;;;;;;;5071889;28;20040;-63
2022/05/26 04:56:10;;;;;;;16.47;3.33;;;;;;;;;;5071709;28;20425;-63
2022/05/26 04:58:37;;;;;;;23.73;4.50;;;;;;;;;;5071794;28;20805;-63
2022/05/26 05:01:21;;;;;;;18.27;4.20;;;;;;;;;;5071530;28;20615;-64
2022/05/26 05:03:47;;;;;;;23.97;4.57;;;;;;;;;;5071549;28;20494;-64
2022/05/26 05:06:14;;;;;;;17.00;3.93;;;;;;;;;;5071501;28;20037;-64
2022/05/26 05:08:41;;;;;;;15.50;3.67;;;;;;;;;;5071202;28;20080;-64
2022/05/26 05:11:07;;;;;;;14.90;3.53;;;;;;;;;;5071522;28;20486;-64
2022/05/26 05:13:33;;;;;;;19.80;4.77;;;;;;;;;;5071259;28;20050;-64
2022/05/26 05:16:03;;;;;;;16.70;3.97;;;;;;;;;;5071096;28;20706;-64
2022/05/26 05:18:30;;;;;;;17.93;4.27;;;;;;;;;;5059228;28;20056;-64
2022/05/26 05:20:58;;;;;;;17.03;3.90;;;;;;;;;;5051419;28;20052;-64
2022/05/26 05:23:24;;;;;;;18.80;3.17;;;;;;;;;;5050817;28;20423;-64
2022/05/26 05:25:52;;;;;;;23.63;4.17;;;;;;;;;;5050932;28;20083;-64
2022/05/26 05:28:24;;;;;;;16.63;4.30;;;;;;;;;;5050658;28;20053;-64
2022/05/26 05:30:56;;;;;;;13.70;2.97;;;;;;;;;;5050553;28;20052;-64
2022/05/26 05:33:31;;;;;;;18.03;3.40;;;;;;;;;;5050168;28;20037;-64
2022/05/26 05:35:57;;;;;;;12.83;3.40;;;;;;;;;;5058064;28;20052;-64
2022/05/26 05:38:23;;;;;;;14.50;2.83;;;;;;;;;;5071103;28;20037;-64
2022/05/26 05:40:49;;;;;;;17.03;2.83;;;;;;;;;;5070719;28;20536;-64
2022/05/26 05:43:16;;;;;;;11.23;3.03;;;;;;;;;;5070849;28;20048;-64
2022/05/26 05:45:42;;;;;;;10.07;2.13;;;;;;;;;;5070630;28;20041;-63
2022/05/26 05:48:08;;;;;;;8.70;2.77;;;;;;;;;;5070920;28;20047;-64
2022/05/26 05:50:37;;;;;;;14.77;3.03;;;;;;;;;;5064984;28;20906;-64
2022/05/26 05:53:04;;;;;;;12.37;1.93;;;;;;;;;;5051395;28;20519;-64
2022/05/26 05:55:31;;;;;;;11.00;1.60;;;;;;;;;;5055088;28;20044;-65
2022/05/26 05:57:57;;;;;;;10.30;2.17;;;;;;;;;;5051715;28;20084;-64
2022/05/26 06:00:23;;;;;;;9.43;1.63;;;;;;;;;;5050604;28;20080;-64
2022/05/26 06:02:49;;;;;;;11.93;1.83;;;;;;;;;;5050906;28;20459;-64
2022/05/26 06:05:15;;;;;;;10.27;2.03;;;;;;;;;;5064897;28;20036;-64
2022/05/26 06:07:41;;;;;;;10.20;1.80;;;;;;;;;;5059046;28;20509;-64
2022/05/26 06:10:08;;;;;;;10.57;1.90;;;;;;;;;;5054615;28;20135;-64
2022/05/26 06:12:35;;;;;;;9.07;1.73;;;;;;;;;;5068755;28;20076;-64
2022/05/26 06:15:01;;;;;;;12.93;2.07;;;;;;;;;;5059697;28;20064;-64
2022/05/26 06:17:27;;;;;;;7.53;1.57;;;;;;;;;;5053525;28;20067;-64
2022/05/26 06:19:53;;;;;;;9.60;1.90;;;;;;;;;;5060164;28;21385;-64
2022/05/26 06:22:21;;;;;;;10.00;1.60;;;;;;;;;;5061893;28;20106;-64
2022/05/26 06:24:47;;;;;;;9.60;1.40;;;;;;;;;;5057309;28;20037;-64
2022/05/26 06:29:59;;;;;;;9.63;1.40;;;;;;;;;;5060578;28;20079;-64
2022/05/26 06:37:56;;;;;;;7.77;2.30;;;;;;;;;;5057478;28;20045;-63
2022/05/26 06:40:22;;;;;;;4.43;1.40;;;;;;;;;;5057714;28;20052;-63
2022/05/26 06:42:49;;;;;;;4.17;0.80;;;;;;;;;;5069157;28;20135;-63
2022/05/26 06:45:16;;;;;;;4.80;1.17;;;;;;;;;;5053951;28;20142;-63
2022/05/26 06:47:42;;;;;;;5.63;1.20;;;;;;;;;;5053299;28;20348;-63
2022/05/26 06:50:10;;;;;;;8.77;1.30;;;;;;;;;;5067875;28;20079;-63
2022/05/26 06:52:36;;;;;;;7.53;1.37;;;;;;;;;;5061416;28;20055;-63
2022/05/26 06:55:04;;;;;;;6.90;1.10;;;;;;;;;;5069435;28;20422;-63
2022/05/26 06:57:30;;;;;;;6.37;1.17;;;;;;;;;;5065024;28;20036;-63
2022/05/26 06:59:56;;;;;;;8.03;1.13;;;;;;;;;;5068463;28;20179;-63
2022/05/26 07:02:22;;;;;;;5.53;1.00;;;;;;;;;;5058404;28;20132;-63
2022/05/26 07:04:48;;;;;;;5.00;0.90;;;;;;;;;;5056574;28;20048;-63
2022/05/26 07:07:15;;;;;;;5.53;1.40;;;;;;;;;;5053267;28;20032;-63
2022/05/26 07:09:41;;;;;;;8.63;1.27;;;;;;;;;;5057195;28;20139;-63
2022/05/26 07:12:08;;;;;;;7.27;1.00;;;;;;;;;;5058618;28;20463;-63
2022/05/26 07:14:34;;;;;;;3.87;0.77;;;;;;;;;;5059056;28;20090;-63
2022/05/26 07:17:00;;;;;;;12.83;2.00;;;;;;;;;;5058326;28;20041;-63
2022/05/26 07:19:26;;;;;;;4.33;0.80;;;;;;;;;;5067339;28;20044;-63
2022/05/26 07:21:53;;;;;;;6.97;1.00;;;;;;;;;;5067110;28;20495;-63
2022/05/26 07:24:20;;;;;;;8.10;1.00;;;;;;;;;;5069061;28;20404;-63
2022/05/26 07:26:47;;;;;;;4.07;1.40;;;;;;;;;;5067677;28;20427;-63
2022/05/26 07:29:13;;;;;;;5.23;1.00;;;;;;;;;;5061487;28;20056;-63
2022/05/26 07:31:39;;;;;;;6.67;0.93;;;;;;;;;;5065546;28;20063;-62
2022/05/26 07:34:05;;;;;;;8.37;1.17;;;;;;;;;;5052845;28;20045;-62
2022/05/26 07:42:02;;;;;;;3.80;0.87;;;;;;;;;;5054224;28;20057;-62
2022/05/26 07:44:29;;;;;;;4.07;0.90;;;;;;;;;;5064430;28;20499;-62
2022/05/26 07:46:56;;;;;;;5.43;0.90;;;;;;;;;;5056117;28;20186;-62
2022/05/26 07:49:22;;;;;;;4.37;1.00;;;;;;;;;;5060767;28;20051;-62
2022/05/26 07:51:48;;;;;;;6.13;0.90;;;;;;;;;;5056372;28;20044;-62
2022/05/26 07:54:14;;;;;;;5.93;1.00;;;;;;;;;;5064137;28;20036;-62
2022/05/26 07:56:40;;;;;;;6.03;1.00;;;;;;;;;;5060478;28;20045;-62
2022/05/26 07:59:07;;;;;;;7.23;1.10;;;;;;;;;;5060526;28;20041;-62
2022/05/26 08:01:33;;;;;;;5.17;1.67;;;;;;;;;;5067324;28;20044;-62
2022/05/26 08:03:59;;;;;;;4.10;0.90;;;;;;;;;;5063075;28;20585;-62
2022/05/26 08:06:26;;;;;;;2.83;1.00;;;;;;;;;;5056432;28;20044;-62
2022/05/26 08:08:52;;;;;;;4.30;0.67;;;;;;;;;;5060426;28;20048;-62
2022/05/26 08:11:18;;;;;;;5.27;1.00;;;;;;;;;;5062013;28;20835;-62
2022/05/26 08:13:44;;;;;;;2.77;1.03;;;;;;;;;;5052488;28;20080;-62
2022/05/26 08:16:10;;;;;;;5.20;0.70;;;;;;;;;;5054289;28;20102;-61
2022/05/26 08:18:36;;;;;;;5.23;0.80;;;;;;;;;;5064262;28;20041;-62
2022/05/26 08:21:06;;;;;;;2.87;0.70;;;;;;;;;;5058664;28;20029;-61
2022/05/26 08:23:32;;;;;;;4.27;0.83;;;;;;;;;;5052020;28;20068;-62
2022/05/26 08:25:58;;;;;;;5.43;0.87;;;;;;;;;;5065469;28;20847;-61
2022/05/26 08:28:24;;;;;;;2.73;0.60;;;;;;;;;;5072377;28;20036;-61
2022/05/26 08:30:50;;;;;;;6.33;0.70;;;;;;;;;;5066500;28;20213;-62
2022/05/26 08:33:16;;;;;;;2.97;0.87;;;;;;;;;;5069250;28;20048;-61
2022/05/26 08:35:42;;;;;;;7.03;0.80;;;;;;;;;;5066454;28;20422;-61
2022/05/26 08:38:08;;;;;;;2.70;0.60;;;;;;;;;;5069350;28;20517;-61
2022/05/26 08:40:37;;;;;;;6.47;0.80;;;;;;;;;;5063873;28;20040;-62
2022/05/26 08:43:04;;;;;;;2.97;0.70;;;;;;;;;;5062364;28;20442;-61
2022/05/26 08:45:32;;;;;;;5.50;1.27;;;;;;;;;;5059944;28;20048;-61
2022/05/26 08:47:58;;;;;;;5.27;1.47;;;;;;;;;;5059648;28;20036;-61
2022/05/26 08:50:26;;;;;;;4.57;0.77;;;;;;;;;;5060031;28;20415;-61
2022/05/26 08:53:01;;;;;;;2.40;0.43;;;;;;;;;;5061128;28;20032;-61
2022/05/26 08:55:53;;;;;;;3.47;1.30;;;;;;;;;;5059322;28;20043;-61
2022/05/26 08:58:21;;;;;;;7.93;1.03;;;;;;;;;;5069153;28;20647;-61
2022/05/26 09:00:49;;;;;;;4.97;1.00;;;;;;;;;;5070167;28;20036;-61
2022/05/26 09:03:24;;;;;;;3.60;0.80;;;;;;;;;;5064576;28;20453;-61
2022/05/26 09:05:52;;;;;;;4.33;0.80;;;;;;;;;;5070473;28;20047;-61
2022/05/26 09:13:52;;;;;;;3.80;0.90;;;;;;;;;;5058232;28;20072;-61
2022/05/26 09:16:18;;;;;;;5.77;1.20;;;;;;;;;;5066609;28;20049;-61
2022/05/26 09:18:44;;;;;;;4.07;0.90;;;;;;;;;;5050875;28;20106;-61
2022/05/26 09:21:24;;;;;;;4.33;0.90;;;;;;;;;;5051418;28;20131;-61
2022/05/26 09:23:50;;;;;;;2.70;0.63;;;;;;;;;;5052223;28;20083;-61
2022/05/26 09:26:18;;;;;;;3.60;0.90;;;;;;;;;;5067241;28;20117;-61
2022/05/26 09:28:49;;;;;;;4.57;0.70;;;;;;;;;;5069525;28;20490;-61
2022/05/26 09:31:24;;;;;;;4.23;0.93;;;;;;;;;;5068600;28;20048;-61
2022/05/26 09:33:59;;;;;;;4.20;1.17;;;;;;;;;;5067519;28;20055;-61
2022/05/26 09:36:28;;;;;;;4.60;0.90;;;;;;;;;;5070720;28;20040;-61
2022/05/26 09:38:54;;;;;;;2.27;0.60;;;;;;;;;;5070847;28;20719;-61
2022/05/26 09:41:20;;;;;;;6.67;0.70;;;;;;;;;;5071019;28;20060;-61
2022/05/26 09:43:48;;;;;;;6.20;0.90;;;;;;;;;;5070668;28;20040;-61
2022/05/26 09:46:16;;;;;;;2.90;0.77;;;;;;;;;;5069540;28;20125;-61
2022/05/26 09:48:43;;;;;;;4.30;0.87;;;;;;;;;;5059046;28;20054;-61
2022/05/26 09:51:14;;;;;;;2.83;0.67;;;;;;;;;;5070546;28;20076;-60
2022/05/26 09:53:42;;;;;;;6.70;0.80;;;;;;;;;;5053314;28;20049;-60
2022/05/26 09:56:11;;;;;;;4.23;0.90;;;;;;;;;;5053477;28;20040;-60
2022/05/26 09:58:39;;;;;;;4.37;1.00;;;;;;;;;;5058214;28;20044;-60
2022/05/26 10:01:14;;;;;;;4.93;1.00;;;;;;;;;;5062590;28;20056;-60
2022/05/26 10:03:46;;;;;;;4.80;0.73;;;;;;;;;;5069712;28;20118;-61
2022/05/26 10:06:15;;;;;;;3.00;1.10;;;;;;;;;;5062291;28;20045;-60
2022/05/26 10:08:44;;;;;;;3.10;0.70;;;;;;;;;;5052493;28;20036;-60
2022/05/26 10:11:18;;;;;;;3.60;1.00;;;;;;;;;;5051639;28;20052;-60
2022/05/26 10:14:03;;;;;;;4.33;1.00;;;;;;;;;;5052378;28;20055;-60
2022/05/26 10:16:58;;;;;;;7.87;1.17;;;;;;;;;;5050274;28;20055;-60
2022/05/26 10:19:44;;;;;;;3.60;1.07;;;;;;;;;;5041903;28;20052;-60
2022/05/26 10:22:21;;;;;;;4.20;1.20;;;;;;;;;;5058469;28;20102;-60
2022/05/26 10:24:50;;;;;;;6.90;1.33;;;;;;;;;;5051907;28;20039;-61
2022/05/26 10:27:20;;;;;;;6.73;1.10;;;;;;;;;;5055743;28;20468;-60
2022/05/26 10:29:49;;;;;;;5.73;1.30;;;;;;;;;;5060936;28;20736;-60
2022/05/26 10:32:18;;;;;;;6.80;1.57;;;;;;;;;;5050225;28;20048;-60
2022/05/26 10:34:50;;;;;;;6.03;1.40;;;;;;;;;;5058499;28;20052;-60
2022/05/26 10:37:25;;;;;;;5.67;1.50;;;;;;;;;;5051742;28;20036;-60
2022/05/26 10:40:00;;;;;;;6.80;1.83;;;;;;;;;;5049481;28;20057;-60
2022/05/26 10:42:28;;;;;;;7.93;1.33;;;;;;;;;;5049871;28;20045;-60
2022/05/26 10:45:12;;;;;;;3.97;1.17;;;;;;;;;;5055123;28;20048;-60
2022/05/26 10:47:53;;;;;;;8.27;1.50;;;;;;;;;;5052117;28;20083;-60
2022/05/26 10:50:34;;;;;;;2.83;0.97;;;;;;;;;;5067387;28;20131;-60
2022/05/26 10:53:23;;;;;;;2.47;0.80;;;;;;;;;;5057591;28;20044;-60
2022/05/26 10:56:04;;;;;;;4.30;1.10;;;;;;;;;;5068067;28;20066;-60
2022/05/26 10:58:37;;;;;;;3.70;1.10;;;;;;;;;;5054345;28;20076;-60
2022/05/26 11:01:09;;;;;;;6.28;1.63;;;;;;;;;;5053464;28;20055;-60
2022/05/26 11:03:38;;;;;;;6.00;1.25;;;;;;;;;;5064062;28;20052;-60
2022/05/26 11:06:07;;;;;;;5.78;1.30;;;;;;;;;;5064694;28;20062;-60
2022/05/26 11:08:40;;;;;;;6.20;1.00;;;;;;;;;;5063827;28;20112;-61
2022/05/26 11:11:06;;;;;;;;;;;;;;;;;;5066409;28;20554;-60
2022/05/26 11:13:32;;;;;;;2.80;0.98;;;;;;;;;;5067408;28;19928;-60
2022/05/26 11:19:04;;;;;;;7.57;1.38;;;;;;;;;;5046474;28;20102;-60
2022/05/26 11:21:31;;;;;;;4.57;1.10;;;;;;;;;;5053282;28;20046;-58
2022/05/26 11:23:57;;;;;;;5.63;1.30;;;;;;;;;;5059598;28;20056;-58
2022/05/26 11:26:29;;;;;;;6.05;1.48;;;;;;;;;;5062003;28;20499;-58
2022/05/26 11:28:58;;;;;;;2.17;1.00;;;;;;;;;;5049393;28;20790;-58
2022/05/26 11:37:21;;;;;;;4.95;1.50;;;;;;;;;;5030327;28;20476;-58
2022/05/26 11:39:52;;;;;;;4.68;1.40;;;;;;;;;;5045681;28;20056;-58
2022/05/26 11:42:39;;;;;;;3.97;1.60;;;;;;;;;;5053161;28;20048;-58
2022/05/26 11:45:14;;;;;;;6.75;2.08;;;;;;;;;;5066648;28;20570;-58
2022/05/26 11:47:58;;;;;;;4.32;1.30;;;;;;;;;;5060630;28;20056;-58
2022/05/26 11:50:27;;;;;;;4.10;1.10;;;;;;;;;;5072064;28;20048;-58
2022/05/26 11:52:53;;;;;;;4.07;1.10;;;;;;;;;;5067584;28;20051;-58
2022/05/26 11:55:37;;;;;;;4.82;1.33;;;;;;;;;;5063508;28;20131;-59
2022/05/26 11:58:28;;;;;;;7.13;1.20;;;;;;;;;;5071565;28;20161;-58
2022/05/26 12:01:10;;;;;;;5.50;1.70;;;;;;;;;;5071339;28;20037;-58
2022/05/26 12:03:49;;;;;;;3.65;1.45;;;;;;;;;;5066185;28;20041;-58
2022/05/26 12:06:16;;;;;;;3.78;1.50;;;;;;;;;;5072971;28;20032;-58
2022/05/26 12:08:44;;;;;;;4.10;1.10;;;;;;;;;;5068486;28;20095;-58
2022/05/26 12:11:12;;;;;;;5.32;1.50;;;;;;;;;;5070366;28;20403;-59
2022/05/26 12:13:41;;;;;;;6.03;2.15;;;;;;;;;;5055666;28;20166;-58
2022/05/26 12:16:19;;;;;;;4.22;1.30;;;;;;;;;;5055787;28;20073;-59
2022/05/26 12:19:18;;;;;;;5.97;2.15;;;;;;;;;;5060073;28;20064;-58
2022/05/26 12:21:46;;;;;;;4.78;1.25;;;;;;;;;;5043751;28;20045;-58
2022/05/26 12:24:30;;;;;;;3.58;1.48;;;;;;;;;;5072573;28;20051;-58
2022/05/26 12:26:56;;;;;;;4.10;1.02;;;;;;;;;;5062765;28;20526;-59
2022/05/26 12:29:41;;;;;;;4.30;1.10;;;;;;;;;;5059861;28;20533;-59
2022/05/26 12:32:12;;;;;;;5.45;1.08;;;;;;;;;;5057722;28;20091;-61
2022/05/26 12:34:49;;;;;;;7.57;1.17;;;;;;;;;;5039063;28;20045;-58
2022/05/26 12:37:24;;;;;;;7.32;1.45;;;;;;;;;;5059961;28;20041;-58
2022/05/26 12:40:09;;;;;;;4.22;1.02;;;;;;;;;;5066756;28;20058;-58
2022/05/26 12:42:52;;;;;;;5.10;1.25;;;;;;;;;;5063342;28;20037;-58
2022/05/26 12:45:18;;;;;;;;;;;;;;;;;;5063774;28;20083;-58
2022/05/26 12:48:03;;;;;;;7.60;1.92;;;;;;;;;;5051759;28;20302;-59
2022/05/26 12:50:31;;;;;;;6.95;1.48;;;;;;;;;;5050893;28;20053;-59
2022/05/26 12:52:57;;;;;;;6.05;1.42;;;;;;;;;;5051614;28;20076;-58
2022/05/26 12:55:33;;;;;;;6.05;1.60;;;;;;;;;;5051478;28;20067;-59
2022/05/26 12:58:02;;;;;;;4.50;1.33;;;;;;;;;;5051793;28;20044;-58
2022/05/26 13:00:31;;;;;;;4.90;1.33;;;;;;;;;;5051985;28;20045;-58
2022/05/26 13:02:59;;;;;;;7.80;1.95;;;;;;;;;;5052109;28;20499;-59
2022/05/26 13:05:29;;;;;;;5.82;2.00;;;;;;;;;;5051449;28;20037;-58
2022/05/26 13:07:57;;;;;;;6.10;1.48;;;;;;;;;;5051770;28;20163;-58
2022/05/26 13:10:24;;;;;;;7.68;1.55;;;;;;;;;;5051433;28;20090;-59
2022/05/26 13:12:50;;;;;;;6.88;1.77;;;;;;;;;;5051715;28;20052;-59
2022/05/26 13:15:24;;;;;;;7.60;1.40;;;;;;;;;;5051867;28;20048;-58
2022/05/26 13:17:52;;;;;;;5.93;1.40;;;;;;;;;;5051720;28;20645;-59
2022/05/26 13:20:23;;;;;;;7.85;1.80;;;;;;;;;;5051126;28;20044;-58
2022/05/26 13:22:49;;;;;;;7.93;1.80;;;;;;;;;;5051689;28;20470;-58
2022/05/26 13:25:16;;;;;;;6.78;1.70;;;;;;;;;;5069473;28;20414;-58
2022/05/26 13:27:48;;;;;;;6.57;1.98;;;;;;;;;;5071083;28;20047;-58
2022/05/26 13:33:11;;;;;;;5.15;1.35;;;;;;;;;;5070690;28;20275;-59
2022/05/26 13:35:45;;;;;;;5.82;1.65;;;;;;;;;;5070807;28;20048;-59
2022/05/26 13:38:22;;;;;;;6.53;1.85;;;;;;;;;;5061271;28;20059;-59
2022/05/26 13:40:48;;;;;;;9.05;2.00;;;;;;;;;;5051189;28;20053;-59
2022/05/26 13:43:15;;;;;;;6.35;1.48;;;;;;;;;;5050845;28;20103;-59
2022/05/26 13:45:42;;;;;;;4.53;1.40;;;;;;;;;;5051180;28;20111;-59
2022/05/26 13:48:32;;;;;;;5.97;1.48;;;;;;;;;;5051009;28;20044;-59
2022/05/26 13:51:01;;;;;;;9.15;1.50;;;;;;;;;;5051300;28;20168;-59
2022/05/26 13:53:27;;;;;;;6.25;2.17;;;;;;;;;;5049571;28;20045;-59
2022/05/26 13:55:56;;;;;;;5.57;1.63;;;;;;;;;;5050936;28;20098;-59
2022/05/26 13:58:22;;;;;;;8.40;1.57;;;;;;;;;;5050504;28;20517;-59
2022/05/26 14:00:57;;;;;;;6.90;1.73;;;;;;;;;;5050805;28;20087;-59
2022/05/26 14:03:28;;;;;;;10.07;1.47;;;;;;;;;;5056818;28;20119;-59
2022/05/26 14:06:02;;;;;;;8.02;1.35;;;;;;;;;;5063732;28;20498;-59
2022/05/26 14:08:28;;;;;;;9.80;2.40;;;;;;;;;;5070671;28;20053;-59
2022/05/26 14:10:55;;;;;;;7.87;2.00;;;;;;;;;;5070881;28;20482;-59
2022/05/26 14:13:21;;;;;;;9.43;1.90;;;;;;;;;;5070231;28;20048;-60
2022/05/26 14:16:06;;;;;;;7.73;1.70;;;;;;;;;;5070698;28;20044;-59
2022/05/26 14:18:32;;;;;;;6.07;1.60;;;;;;;;;;5050712;28;20056;-59
2022/05/26 14:21:04;;;;;;;8.60;2.23;;;;;;;;;;5050972;28;20732;-59
2022/05/26 14:23:31;;;;;;;6.23;1.60;;;;;;;;;;5049732;28;20045;-59
2022/05/26 14:25:58;;;;;;;7.80;2.00;;;;;;;;;;5050751;28;20032;-59
2022/05/26 14:28:38;;;;;;;5.43;1.50;;;;;;;;;;5050147;28;20522;-59
2022/05/26 14:31:05;;;;;;;5.90;1.40;;;;;;;;;;5050716;28;20491;-59
2022/05/26 14:33:32;;;;;;;9.27;1.27;;;;;;;;;;5050261;28;20064;-59
2022/05/26 14:35:59;;;;;;;14.20;2.07;;;;;;;;;;5051827;28;20052;-59
2022/05/26 14:38:25;;;;;;;5.60;1.50;;;;;;;;;;5052809;28;20041;-59
2022/05/26 14:40:52;;;;;;;8.37;1.80;;;;;;;;;;5067672;28;20143;-59
2022/05/26 14:43:19;;;;;;;6.73;2.00;;;;;;;;;;5069038;28;20147;-59
2022/05/26 14:45:45;;;;;;;7.37;2.10;;;;;;;;;;5063132;28;20068;-59
2022/05/26 14:48:11;;;;;;;6.43;1.63;;;;;;;;;;5057922;28;20049;-59
2022/05/26 14:50:38;;;;;;;9.30;1.50;;;;;;;;;;5065701;28;20154;-59
2022/05/26 14:53:07;;;;;;;9.50;3.00;;;;;;;;;;5068955;28;20174;-59
2022/05/26 14:55:34;;;;;;;8.40;1.97;;;;;;;;;;5055997;28;20554;-59
2022/05/26 14:58:08;;;;;;;12.33;2.50;;;;;;;;;;5066612;28;20040;-58
2022/05/26 15:00:41;;;;;;;8.60;1.63;;;;;;;;;;5061285;28;20044;-60
2022/05/26 15:03:07;;;;;;;8.60;1.43;;;;;;;;;;5067326;28;20051;-61
2022/05/26 15:05:34;;;;;;;5.63;1.40;;;;;;;;;;5067092;28;20048;-61
2022/05/26 15:08:00;;;;;;;9.87;2.40;;;;;;;;;;5063414;28;20045;-60
2022/05/26 15:10:26;;;;;;;8.07;1.53;;;;;;;;;;5053070;28;20056;-60
2022/05/26 15:12:52;;;;;;;6.97;1.83;;;;;;;;;;5069002;28;20123;-60
2022/05/26 15:15:18;;;;;;;6.83;1.83;;;;;;;;;;5059829;28;20831;-60
2022/05/26 15:17:45;;;;;;;7.40;1.63;;;;;;;;;;5060955;28;20143;-60
2022/05/26 15:20:17;;;;;;;10.43;2.07;;;;;;;;;;5053773;28;20078;-60
2022/05/26 15:22:43;;;;;;;12.03;2.67;;;;;;;;;;5051721;28;20499;-61
2022/05/26 15:25:10;;;;;;;6.23;1.60;;;;;;;;;;5062719;28;20115;-60
2022/05/26 15:27:37;;;;;;;5.87;1.50;;;;;;;;;;5059067;28;20041;-61
2022/05/26 15:30:04;;;;;;;8.23;2.10;;;;;;;;;;5056605;28;20044;-60